Time;durP1;ratioP1;P1;durP2;ratioP2;P2;SDS_P1;SDS_P2;PMS_P1;PMS_P2;Temp;Humidity;BMP_temperature;BMP_pressure;BME280_temperature;BME280_humidity;BME280_pressure;Samples;Min_cycle;Max_cycle;Signal;HPM_P1;HPM_P2
2024/01/31 00:00:06;;;;;;;;;;;;;;;6.39;100.00;103362.25;5113129;28;19968;-74
2024/01/31 00:02:31;;;;;;;;;;;;;;;6.38;100.00;103365.59;5112266;28;20310;-74
2024/01/31 00:04:57;;;;;;;;;;;;;;;6.38;100.00;103365.59;5113122;28;20409;-74
2024/01/31 00:07:22;;;;;;;;;;;;;;;6.39;100.00;103361.34;5094709;28;19934;-74
2024/01/31 00:09:47;;;;;;;;;;;;;;;6.39;100.00;103359.66;5112982;28;19912;-74
2024/01/31 00:12:12;;;;;;;;;;;;;;;6.38;100.00;103359.53;5110986;28;20007;-75
2024/01/31 00:14:38;;;;;;;;;;;;;;;6.37;100.00;103366.41;5112944;28;19911;-74
2024/01/31 00:17:03;;;;;;;;;;;;;;;6.37;100.00;103369.00;5112813;28;19907;-74
2024/01/31 00:19:28;;;;;;;;;;;;;;;6.37;100.00;103369.00;5112826;28;20436;-75
2024/01/31 00:21:53;;;;;;;;;;;;;;;6.37;100.00;103376.75;5111582;28;20361;-74
2024/01/31 00:24:19;;;;;;;;;;;;;;;6.36;100.00;103380.13;5107573;28;19993;-75
2024/01/31 00:26:45;;;;;;;;;;;;;;;6.36;100.00;103385.31;5108602;28;19912;-75
2024/01/31 00:29:10;;;;;;;;;;;;;;;6.36;100.00;103387.00;5112522;28;19916;-75
2024/01/31 00:31:35;;;;;;;;;;;;;;;6.36;100.00;103392.19;5093471;28;19920;-75
2024/01/31 00:34:00;;;;;;;;;;;;;;;6.34;100.00;103391.13;5110383;28;19974;-75
2024/01/31 00:36:26;;;;;;;;;;;;;;;6.32;100.00;103401.34;5112304;28;19912;-75
2024/01/31 00:38:52;;;;;;;;;;;;;;;6.32;100.00;103390.09;5094028;28;20404;-75
2024/01/31 00:41:17;;;;;;;;;;;;;;;6.32;100.00;103400.47;5112273;28;19919;-75
2024/01/31 00:43:42;;;;;;;;;;;;;;;6.31;100.00;103401.25;5103244;28;20342;-74
2024/01/31 00:46:08;;;;;;;;;;;;;;;6.30;100.00;103402.94;5112268;28;19940;-74
2024/01/31 00:48:33;;;;;;;;;;;;;;;6.29;100.00;103402.81;5112129;28;19912;-74
2024/01/31 00:50:59;;;;;;;;;;;;;;;6.28;100.00;103409.66;5112146;28;20788;-74
2024/01/31 00:53:24;;;;;;;;;;;;;;;6.27;100.00;103413.00;5085475;28;19922;-74
2024/01/31 00:55:49;;;;;;;;;;;;;;;6.27;100.00;103413.00;5111739;28;19912;-74
2024/01/31 00:58:15;;;;;;;;;;;;;;;6.26;100.00;103411.22;5111906;28;20008;-74
2024/01/31 01:00:40;;;;;;;;;;;;;;;6.24;100.00;103402.41;5093755;28;20378;-74
2024/01/31 01:03:05;;;;;;;;;;;;;;;6.23;100.00;103405.78;5111283;28;19924;-74
2024/01/31 01:05:30;;;;;;;;;;;;;;;6.23;100.00;103410.97;5107652;28;19980;-74
2024/01/31 01:07:55;;;;;;;;;;;;;;;6.21;100.00;103417.69;5111847;28;19920;-74
2024/01/31 01:10:21;;;;;;;;;;;;;;;6.19;100.00;103414.06;5111976;28;20400;-74
2024/01/31 01:12:46;;;;;;;;;;;;;;;6.18;100.00;103410.56;5111081;28;20323;-74
2024/01/31 01:15:11;;;;;;;;;;;;;;;6.17;100.00;103420.78;5103175;28;19973;-74
2024/01/31 01:17:38;;;;;;;;;;;;;;;6.16;100.00;103413.81;5073607;28;20011;-74
2024/01/31 01:20:04;;;;;;;;;;;;;;;6.16;100.00;103419.00;5092013;28;19965;-74
2024/01/31 01:22:29;;;;;;;;;;;;;;;6.14;100.00;103418.88;5111748;28;19915;-74
2024/01/31 01:24:54;;;;;;;;;;;;;;;6.14;100.00;103429.22;5102891;28;19966;-74
2024/01/31 01:27:19;;;;;;;;;;;;;;;6.11;100.00;103418.59;5093298;28;19919;-74
2024/01/31 01:29:45;;;;;;;;;;;;;;;6.11;100.00;103420.28;5111507;28;19961;-74
2024/01/31 01:32:10;;;;;;;;;;;;;;;6.10;100.00;103424.56;5110889;28;20060;-74
2024/01/31 01:34:35;;;;;;;;;;;;;;;6.09;100.00;103417.56;5109836;28;19915;-74
2024/01/31 01:37:00;;;;;;;;;;;;;;;6.09;100.00;103421.06;5110937;28;19958;-75
2024/01/31 01:39:26;;;;;;;;;;;;;;;6.09;100.00;103413.28;5111167;28;19920;-74
2024/01/31 01:41:51;;;;;;;;;;;;;;;6.09;100.00;103422.75;5111527;28;20389;-74
2024/01/31 01:44:16;;;;;;;;;;;;;;;6.08;100.00;103421.84;5094272;28;20390;-74
2024/01/31 01:46:42;;;;;;;;;;;;;;;6.08;100.00;103419.28;5110176;28;20350;-74
2024/01/31 01:49:08;;;;;;;;;;;;;;;6.07;100.00;103422.63;5111185;28;19924;-74
2024/01/31 01:51:33;;;;;;;;;;;;;;;6.06;100.00;103425.97;5111199;28;20012;-75
2024/01/31 01:53:59;;;;;;;;;;;;;;;6.07;100.00;103419.16;5104636;28;19923;-74
2024/01/31 01:56:24;;;;;;;;;;;;;;;6.06;100.00;103422.50;5108119;28;19951;-74
2024/01/31 01:58:51;;;;;;;;;;;;;;;6.04;100.00;103417.19;5111179;28;19958;-75
2024/01/31 02:01:16;;;;;;;;;;;;;;;6.03;100.00;103417.97;5110206;28;20385;-75
2024/01/31 02:03:43;;;;;;;;;;;;;;;6.02;100.00;103418.72;5110945;28;19922;-75
2024/01/31 02:06:08;;;;;;;;;;;;;;;6.01;100.00;103414.34;5111068;28;19912;-74
2024/01/31 02:08:33;;;;;;;;;;;;;;;6.00;100.00;103412.53;5106744;28;19922;-75
2024/01/31 02:10:59;;;;;;;;;;;;;;;5.99;100.00;103417.59;5106679;28;19916;-75
2024/01/31 02:13:24;;;;;;;;;;;;;;;5.99;100.00;103412.41;5126805;27;19919;-74
2024/01/31 02:15:50;;;;;;;;;;;;;;;5.99;100.00;103409.81;5111465;28;19916;-75
2024/01/31 02:18:15;;;;;;;;;;;;;;;5.97;100.00;103412.28;5112225;28;19945;-74
2024/01/31 02:20:40;;;;;;;;;;;;;;;5.96;100.00;103407.84;5115135;28;19916;-74
2024/01/31 02:23:06;;;;;;;;;;;;;;;5.94;100.00;103409.41;5115081;28;19912;-74
2024/01/31 02:25:31;;;;;;;;;;;;;;;5.93;100.00;103411.06;5114977;28;19912;-74
2024/01/31 02:27:56;;;;;;;;;;;;;;;5.92;100.00;103398.94;5108855;28;20433;-74
2024/01/31 02:30:21;;;;;;;;;;;;;;;5.93;100.00;103405.00;5105849;28;19919;-74
2024/01/31 02:32:47;;;;;;;;;;;;;;;5.92;100.00;103410.94;5096596;28;20620;-74
2024/01/31 02:35:12;;;;;;;;;;;;;;;5.91;100.00;103411.75;5114962;28;19912;-74
2024/01/31 02:37:41;;;;;;;;;;;;;;;5.92;100.00;103416.13;5114169;28;19938;-74
2024/01/31 02:40:07;;;;;;;;;;;;;;;5.92;100.00;103413.53;5110927;28;19981;-74
2024/01/31 02:42:32;;;;;;;;;;;;;;;5.90;100.00;103413.41;5112946;28;20331;-74
2024/01/31 02:44:57;;;;;;;;;;;;;;;5.89;100.00;103415.88;5130563;27;19947;-74
2024/01/31 02:47:23;;;;;;;;;;;;;;;5.89;100.00;103409.03;5114564;28;19918;-74
2024/01/31 02:49:48;;;;;;;;;;;;;;;5.89;100.00;103416.78;5109077;28;19993;-75
2024/01/31 02:52:13;;;;;;;;;;;;;;;5.89;100.00;103416.78;5114528;28;19954;-74
2024/01/31 02:54:38;;;;;;;;;;;;;;;5.89;100.00;103410.69;5114391;28;19912;-75
2024/01/31 02:57:04;;;;;;;;;;;;;;;5.89;100.00;103419.38;5114372;28;20026;-75
2024/01/31 02:59:29;;;;;;;;;;;;;;;5.90;100.00;103403.06;5107947;28;19924;-75
2024/01/31 03:01:54;;;;;;;;;;;;;;;5.91;100.00;103407.47;5114167;28;19916;-75
2024/01/31 03:04:20;;;;;;;;;;;;;;;5.88;100.00;103403.69;5095794;28;20350;-74
2024/01/31 03:06:45;;;;;;;;;;;;;;;5.88;100.00;103401.09;5114304;28;20433;-74
2024/01/31 03:09:10;;;;;;;;;;;;;;;5.88;100.00;103396.84;5110376;28;20360;-74
2024/01/31 03:11:35;;;;;;;;;;;;;;;5.87;100.00;103383.78;5114076;28;20450;-75
2024/01/31 03:14:00;;;;;;;;;;;;;;;5.86;100.00;103387.16;5114134;28;19953;-74
2024/01/31 03:16:26;;;;;;;;;;;;;;;5.86;100.00;103382.88;5095783;28;19916;-74
2024/01/31 03:18:53;;;;;;;;;;;;;;;5.85;100.00;103391.44;5112363;28;19918;-74
2024/01/31 03:21:18;;;;;;;;;;;;;;;5.85;100.00;103391.44;5103691;28;19919;-74
2024/01/31 03:23:44;;;;;;;;;;;;;;;5.85;100.00;103380.16;5113784;28;19923;-75
2024/01/31 03:26:11;;;;;;;;;;;;;;;5.85;100.00;103369.81;5095392;28;19915;-74
2024/01/31 03:28:37;;;;;;;;;;;;;;;5.86;100.00;103371.63;5112880;28;19912;-74
2024/01/31 03:31:02;;;;;;;;;;;;;;;5.85;100.00;103374.97;5108152;28;19922;-75
2024/01/31 03:33:27;;;;;;;;;;;;;;;5.84;100.00;103374.09;5107214;28;19912;-74
2024/01/31 03:35:52;;;;;;;;;;;;;;;5.86;100.00;103379.38;5095414;28;20294;-74
2024/01/31 03:38:18;;;;;;;;;;;;;;;5.85;100.00;103374.97;5113425;28;19949;-74
2024/01/31 03:40:43;;;;;;;;;;;;;;;5.84;100.00;103368.03;5110046;28;19924;-74
2024/01/31 03:43:08;;;;;;;;;;;;;;;5.84;100.00;103365.44;5104696;28;19946;-74
2024/01/31 03:45:33;;;;;;;;;;;;;;;5.83;100.00;103366.19;5113349;28;19912;-74
2024/01/31 03:47:58;;;;;;;;;;;;;;;5.83;100.00;103372.28;5113412;28;19912;-74
2024/01/31 03:50:24;;;;;;;;;;;;;;;5.83;100.00;103358.44;5112632;28;19916;-74
2024/01/31 03:52:49;;;;;;;;;;;;;;;5.81;100.00;103355.72;5106019;28;19920;-74
2024/01/31 03:55:14;;;;;;;;;;;;;;;5.80;100.00;103371.13;5113004;28;19918;-74
2024/01/31 03:57:40;;;;;;;;;;;;;;;5.80;100.00;103361.66;5113304;28;19919;-74
2024/01/31 04:00:08;;;;;;;;;;;;;;;5.78;100.00;103365.81;5094790;28;19955;-74
2024/01/31 04:02:33;;;;;;;;;;;;;;;5.79;100.00;103354.66;5110956;28;19915;-74
2024/01/31 04:04:59;;;;;;;;;;;;;;;5.79;100.00;103364.13;5113016;28;19960;-74
2024/01/31 04:07:24;;;;;;;;;;;;;;;5.78;100.00;103365.81;5094639;28;19908;-75
2024/01/31 04:09:49;;;;;;;;;;;;;;;5.75;100.00;103350.94;5112805;28;19941;-74
2024/01/31 04:12:15;;;;;;;;;;;;;;;5.76;100.00;103354.41;5105514;28;19912;-74
2024/01/31 04:14:40;;;;;;;;;;;;;;;5.74;100.00;103349.13;5112932;28;19915;-74
2024/01/31 04:17:05;;;;;;;;;;;;;;;5.75;100.00;103350.03;5112823;28;19918;-74
2024/01/31 04:19:30;;;;;;;;;;;;;;;5.75;100.00;103352.63;5112706;28;20277;-74
2024/01/31 04:21:56;;;;;;;;;;;;;;;5.74;100.00;103351.72;5109529;28;20301;-74
2024/01/31 04:24:21;;;;;;;;;;;;;;;5.72;100.00;103361.03;5108732;28;20288;-74
2024/01/31 04:26:46;;;;;;;;;;;;;;;5.72;100.00;103358.44;5108450;28;20284;-74
2024/01/31 04:29:11;;;;;;;;;;;;;;;5.73;100.00;103364.50;5112241;28;19912;-74
2024/01/31 04:31:36;;;;;;;;;;;;;;;5.73;100.00;103367.09;5093471;28;19911;-74
2024/01/31 04:34:04;;;;;;;;;;;;;;;5.71;100.00;103356.63;5111154;28;19941;-74
2024/01/31 04:36:30;;;;;;;;;;;;;;;5.70;100.00;103359.97;5093924;28;19912;-74
2024/01/31 04:38:55;;;;;;;;;;;;;;;5.67;100.00;103359.72;5093476;28;19924;-74
2024/01/31 04:41:20;;;;;;;;;;;;;;;5.67;100.00;103362.31;5111569;28;19920;-74
2024/01/31 04:43:45;;;;;;;;;;;;;;;5.67;100.00;103356.25;5110318;28;19968;-75
2024/01/31 04:46:12;;;;;;;;;;;;;;;5.67;100.00;103361.41;5112254;28;20345;-74
2024/01/31 04:48:38;;;;;;;;;;;;;;;5.67;100.00;103364.91;5112140;28;20301;-75
2024/01/31 04:51:03;;;;;;;;;;;;;;;5.65;100.00;103356.13;5112116;28;19911;-75
2024/01/31 04:53:28;;;;;;;;;;;;;;;5.65;100.00;103366.47;5110985;28;20374;-75
2024/01/31 04:55:54;;;;;;;;;;;;;;;5.66;100.00;103362.19;5092754;28;20293;-75
2024/01/31 04:58:19;;;;;;;;;;;;;;;5.65;100.00;103360.38;5111859;28;19998;-75
2024/01/31 05:00:45;;;;;;;;;;;;;;;5.65;100.00;103350.03;5111962;28;19919;-74
2024/01/31 05:03:10;;;;;;;;;;;;;;;5.66;100.00;103357.00;5111305;28;19920;-74
2024/01/31 05:05:36;;;;;;;;;;;;;;;5.65;100.00;103357.78;5110911;28;19922;-74
2024/01/31 05:08:01;;;;;;;;;;;;;;;5.65;100.00;103345.78;5111791;28;19916;-75
2024/01/31 05:10:26;;;;;;;;;;;;;;;5.66;100.00;103345.00;5111899;28;20283;-75
2024/01/31 05:12:52;;;;;;;;;;;;;;;5.68;100.00;103350.31;5111776;28;20323;-74
2024/01/31 05:15:17;;;;;;;;;;;;;;;5.68;100.00;103350.31;5094505;28;19920;-74
2024/01/31 05:17:42;;;;;;;;;;;;;;;5.69;100.00;103341.75;5104759;28;19920;-74
2024/01/31 05:20:08;;;;;;;;;;;;;;;5.68;100.00;103340.84;5111601;28;19916;-75
2024/01/31 05:22:33;;;;;;;;;;;;;;;5.68;100.00;103340.84;5111535;28;19969;-74
2024/01/31 05:24:58;;;;;;;;;;;;;;;5.68;100.00;103340.84;5109273;28;19912;-75
2024/01/31 05:27:23;;;;;;;;;;;;;;;5.67;100.00;103339.03;5091289;28;19998;-75
2024/01/31 05:29:49;;;;;;;;;;;;;;;5.68;100.00;103337.38;5109016;28;19919;-74
2024/01/31 05:32:14;;;;;;;;;;;;;;;5.68;100.00;103351.19;5111657;28;19914;-74
2024/01/31 05:34:42;;;;;;;;;;;;;;;5.69;100.00;103344.34;5107298;28;19924;-75
2024/01/31 05:37:08;;;;;;;;;;;;;;;5.69;100.00;103350.44;5104005;28;19915;-75
2024/01/31 05:39:33;;;;;;;;;;;;;;;5.69;100.00;103350.44;5110925;28;19927;-75
2024/01/31 05:41:58;;;;;;;;;;;;;;;5.69;100.00;103354.69;5111396;28;20280;-74
2024/01/31 05:44:23;;;;;;;;;;;;;;;5.69;100.00;103349.50;5111480;28;19919;-75
2024/01/31 05:46:49;;;;;;;;;;;;;;;5.69;100.00;103352.09;5084311;28;19966;-74
2024/01/31 05:49:14;;;;;;;;;;;;;;;5.69;100.00;103350.44;5105175;28;19911;-74
2024/01/31 05:51:39;;;;;;;;;;;;;;;5.70;100.00;103344.47;5111048;28;19912;-74
2024/01/31 05:54:04;;;;;;;;;;;;;;;5.69;100.00;103340.09;5111188;28;19994;-74
2024/01/31 05:56:30;;;;;;;;;;;;;;;5.70;100.00;103353.91;5089208;28;20471;-74
2024/01/31 05:58:55;;;;;;;;;;;;;;;5.71;100.00;103358.31;5084895;28;19919;-74
2024/01/31 06:01:20;;;;;;;;;;;;;;;5.68;100.00;103353.78;5111081;28;20160;-74
2024/01/31 06:03:45;;;;;;;;;;;;;;;5.68;100.00;103356.38;5111091;28;19918;-74
2024/01/31 06:06:10;;;;;;;;;;;;;;;5.68;100.00;103347.72;5110257;28;19915;-75
2024/01/31 06:08:36;;;;;;;;;;;;;;;5.67;100.00;103354.56;5104520;28;19916;-74
2024/01/31 06:11:08;;;;;;;;;;;;;;;5.68;100.00;103355.47;5103240;28;19924;-74
2024/01/31 06:13:33;;;;;;;;;;;;;;;5.68;100.00;103360.66;5111254;28;19927;-74
2024/01/31 06:15:58;;;;;;;;;;;;;;;5.68;100.00;103356.38;5110510;28;19916;-74
2024/01/31 06:18:23;;;;;;;;;;;;;;;5.67;100.00;103351.97;5101036;28;19951;-74
2024/01/31 06:20:49;;;;;;;;;;;;;;;5.67;100.00;103349.38;5110843;28;19974;-75
2024/01/31 06:23:14;;;;;;;;;;;;;;;5.66;100.00;103347.59;5092880;28;19940;-74
2024/01/31 06:25:40;;;;;;;;;;;;;;;5.67;100.00;103339.03;5091913;28;19947;-75
2024/01/31 06:28:08;;;;;;;;;;;;;;;5.68;100.00;103332.19;5103925;28;20301;-75
2024/01/31 06:30:44;;;;;;;;;;;;;;;5.66;100.00;103332.06;5110672;28;20318;-74
2024/01/31 06:33:10;;;;;;;;;;;;;;;5.66;100.00;103321.72;5111065;28;19964;-74
2024/01/31 06:35:36;;;;;;;;;;;;;;;5.66;100.00;103321.72;5110014;28;20006;-74
2024/01/31 06:38:02;;;;;;;;;;;;;;;5.66;100.00;103313.97;5109691;28;19993;-75
2024/01/31 06:40:27;;;;;;;;;;;;;;;5.66;100.00;103310.44;5110749;28;19954;-74
2024/01/31 06:42:52;;;;;;;;;;;;;;;5.66;100.00;103310.44;5110852;28;19916;-74
2024/01/31 06:45:18;;;;;;;;;;;;;;;5.65;100.00;103300.88;5110930;28;19916;-74
2024/01/31 06:47:43;;;;;;;;;;;;;;;5.65;100.00;103306.97;5109135;28;20050;-74
2024/01/31 06:50:09;;;;;;;;;;;;;;;5.65;100.00;103304.38;5092199;28;20328;-74
2024/01/31 06:52:34;;;;;;;;;;;;;;;5.64;100.00;103296.50;5092315;28;19916;-75
2024/01/31 06:55:01;;;;;;;;;;;;;;;5.64;100.00;103299.97;5110602;28;19911;-75
2024/01/31 06:57:27;;;;;;;;;;;;;;;5.64;100.00;103299.09;5109573;28;20316;-74
2024/01/31 06:59:52;;;;;;;;;;;;;;;5.63;100.00;103303.34;5084641;28;20385;-74
2024/01/31 07:02:17;;;;;;;;;;;;;;;5.63;100.00;103302.44;5092314;28;19912;-74
2024/01/31 07:04:42;;;;;;;;;;;;;;;5.63;100.00;103316.28;5095309;28;19934;-74
2024/01/31 07:07:08;;;;;;;;;;;;;;;5.63;100.00;103321.44;5113623;28;19911;-75
2024/01/31 07:09:33;;;;;;;;;;;;;;;5.64;100.00;103328.44;5108865;28;20288;-74
2024/01/31 07:11:59;;;;;;;;;;;;;;;5.64;100.00;103348.22;5114039;28;19939;-74
2024/01/31 07:14:24;;;;;;;;;;;;;;;5.63;100.00;103355.06;5114069;28;20362;-74
2024/01/31 07:16:49;;;;;;;;;;;;;;;5.64;100.00;103363.75;5114020;28;20456;-74
2024/01/31 07:19:15;;;;;;;;;;;;;;;5.65;100.00;103378.47;5112969;28;20415;-74
2024/01/31 07:21:40;;;;;;;;;;;;;;;5.64;100.00;103377.56;5107022;28;19911;-74
2024/01/31 07:24:05;;;;;;;;;;;;;;;5.64;100.00;103384.44;5113830;28;19964;-74
2024/01/31 07:26:30;;;;;;;;;;;;;;;5.64;100.00;103395.69;5113868;28;20385;-74
2024/01/31 07:28:56;;;;;;;;;;;;;;;5.65;100.00;103401.75;5112170;28;20309;-74
2024/01/31 07:31:21;;;;;;;;;;;;;;;5.65;100.00;103402.69;5103303;28;19920;-74
2024/01/31 07:33:46;;;;;;;;;;;;;;;5.64;100.00;103400.84;5113781;28;19994;-74
2024/01/31 07:36:12;;;;;;;;;;;;;;;5.65;100.00;103401.75;5113669;28;20275;-75
2024/01/31 07:38:41;;;;;;;;;;;;;;;5.65;100.00;103402.69;5112435;28;19920;-75
2024/01/31 07:41:06;;;;;;;;;;;;;;;5.64;100.00;103403.44;5112990;28;19920;-75
2024/01/31 07:43:31;;;;;;;;;;;;;;;5.65;100.00;103413.03;5113389;28;19964;-75
2024/01/31 07:45:56;;;;;;;;;;;;;;;5.65;100.00;103407.84;5113399;28;19942;-75
2024/01/31 07:48:22;;;;;;;;;;;;;;;5.64;100.00;103400.84;5112269;28;20384;-75
2024/01/31 07:50:47;;;;;;;;;;;;;;;5.64;100.00;103400.84;5105519;28;20378;-75
2024/01/31 07:53:12;;;;;;;;;;;;;;;5.66;100.00;103407.09;5113364;28;19963;-75
2024/01/31 07:55:37;;;;;;;;;;;;;;;5.66;100.00;103407.09;5113111;28;19916;-75
2024/01/31 07:58:03;;;;;;;;;;;;;;;5.67;100.00;103407.97;5095086;28;19923;-74
2024/01/31 08:00:28;;;;;;;;;;;;;;;5.68;100.00;103397.75;5109743;28;19920;-75
2024/01/31 08:02:53;;;;;;;;;;;;;;;5.68;100.00;103408.09;5105755;28;19968;-75
2024/01/31 08:05:18;;;;;;;;;;;;;;;5.69;100.00;103412.50;5112994;28;19912;-75
2024/01/31 08:07:45;;;;;;;;;;;;;;;5.69;100.00;103399.59;5113274;28;19935;-75
2024/01/31 08:10:13;;;;;;;;;;;;;;;5.69;100.00;103397.00;5111645;28;19915;-74
2024/01/31 08:12:40;;;;;;;;;;;;;;;5.70;100.00;103388.44;5112718;28;19912;-75
2024/01/31 08:15:05;;;;;;;;;;;;;;;5.71;100.00;103392.84;5110586;28;19934;-75
2024/01/31 08:17:30;;;;;;;;;;;;;;;5.71;100.00;103385.09;5090790;28;20309;-74
2024/01/31 08:19:56;;;;;;;;;;;;;;;5.70;100.00;103384.94;5103831;28;20019;-74
2024/01/31 08:22:21;;;;;;;;;;;;;;;5.71;100.00;103398.00;5111755;28;20002;-74
2024/01/31 08:24:46;;;;;;;;;;;;;;;5.71;100.00;103397.13;5112707;28;19912;-74
2024/01/31 08:27:11;;;;;;;;;;;;;;;5.73;100.00;103392.97;5110580;28;19916;-74
2024/01/31 08:29:37;;;;;;;;;;;;;;;5.73;100.00;103390.38;5093200;28;19931;-74
2024/01/31 08:32:02;;;;;;;;;;;;;;;5.72;100.00;103392.06;5102241;28;19915;-74
2024/01/31 08:34:27;;;;;;;;;;;;;;;5.74;100.00;103389.63;5107641;28;19920;-74
2024/01/31 08:36:52;;;;;;;;;;;;;;;5.74;100.00;103377.56;5108022;28;19920;-74
2024/01/31 08:39:18;;;;;;;;;;;;;;;5.75;100.00;103378.50;5085797;28;19919;-74
2024/01/31 08:41:44;;;;;;;;;;;;;;;5.77;100.00;103382.09;5103135;28;19995;-74
2024/01/31 08:44:09;;;;;;;;;;;;;;;5.77;100.00;103374.34;5110474;28;19959;-74
2024/01/31 08:46:34;;;;;;;;;;;;;;;5.79;100.00;103369.31;5112302;28;19916;-75
2024/01/31 08:49:00;;;;;;;;;;;;;;;5.80;100.00;103355.59;5112242;28;20378;-74
2024/01/31 08:51:26;;;;;;;;;;;;;;;5.80;100.00;103355.59;5110994;28;20022;-74
2024/01/31 08:53:51;;;;;;;;;;;;;;;5.83;100.00;103355.84;5105320;28;19962;-74
2024/01/31 08:56:16;;;;;;;;;;;;;;;5.84;100.00;103348.22;5110340;28;20441;-74
2024/01/31 08:58:42;;;;;;;;;;;;;;;5.86;100.00;103353.50;5110181;28;19912;-74
2024/01/31 09:01:07;;;;;;;;;;;;;;;5.88;100.00;103355.47;5109976;28;19918;-74
2024/01/31 09:03:32;;;;;;;;;;;;;;;5.88;100.00;103350.28;5102296;28;20424;-74
2024/01/31 09:05:57;;;;;;;;;;;;;;;5.91;100.00;103354.81;5085533;28;19915;-74
2024/01/31 09:08:22;;;;;;;;;;;;;;;5.93;100.00;103345.47;5109904;28;19912;-75
2024/01/31 09:10:48;;;;;;;;;;;;;;;5.92;100.00;103339.41;5110224;28;19911;-75
2024/01/31 09:13:13;;;;;;;;;;;;;;;5.95;100.00;103335.25;5091666;28;20057;-74
2024/01/31 09:15:38;;;;;;;;;;;;;;;5.94;100.00;103334.38;5111471;28;20389;-75
2024/01/31 09:18:04;;;;;;;;;;;;;;;5.94;100.00;103331.78;5111665;28;19935;-74
2024/01/31 09:20:29;;;;;;;;;;;;;;;5.96;100.00;103325.03;5111646;28;19919;-74
2024/01/31 09:22:54;;;;;;;;;;;;;;;5.97;100.00;103315.56;5110792;28;19924;-74
2024/01/31 09:25:20;;;;;;;;;;;;;;;5.97;100.00;103313.94;5074967;28;20301;-74
2024/01/31 09:27:45;;;;;;;;;;;;;;;5.99;100.00;103307.19;5086684;28;19915;-74
2024/01/31 09:30:11;;;;;;;;;;;;;;;6.00;100.00;103302.94;5093355;28;19965;-74
2024/01/31 09:32:36;;;;;;;;;;;;;;;6.02;100.00;103303.97;5110658;28;19919;-74
2024/01/31 09:35:01;;;;;;;;;;;;;;;6.02;100.00;103299.69;5109498;28;19965;-74
2024/01/31 09:37:26;;;;;;;;;;;;;;;6.04;100.00;103300.72;5111342;28;19931;-79
2024/01/31 09:39:54;;;;;;;;;;;;;;;6.05;100.00;103301.63;5096045;28;20011;-80
2024/01/31 09:42:20;;;;;;;;;;;;;;;6.06;100.00;103301.75;5093289;28;19912;-79
2024/01/31 09:44:45;;;;;;;;;;;;;;;6.09;100.00;103288.16;5109767;28;19926;-78
2024/01/31 09:47:12;;;;;;;;;;;;;;;6.10;100.00;103287.38;5110463;28;20430;-78
2024/01/31 09:49:37;;;;;;;;;;;;;;;6.12;100.00;103285.81;5111088;28;19908;-78
2024/01/31 09:52:03;;;;;;;;;;;;;;;6.14;100.00;103280.75;5111380;28;19964;-79
2024/01/31 09:54:28;;;;;;;;;;;;;;;6.16;100.00;103280.13;5108790;28;19916;-79
2024/01/31 09:56:54;;;;;;;;;;;;;;;6.19;100.00;103274.28;5086091;28;19928;-79
2024/01/31 09:59:20;;;;;;;;;;;;;;;6.20;100.00;103271.81;5111062;28;19912;-79
2024/01/31 10:01:46;;;;;;;;;;;;;;;6.24;100.00;103272.94;5103310;28;19922;-79
2024/01/31 10:04:11;;;;;;;;;;;;;;;6.26;100.00;103274.88;5107564;28;19916;-78
2024/01/31 10:06:37;;;;;;;;;;;;;;;6.30;100.00;103289.00;5106841;28;19916;-78
2024/01/31 10:09:03;;;;;;;;;;;;;;;6.32;100.00;103283.94;5092960;28;19911;-79
2024/01/31 10:11:31;;;;;;;;;;;;;;;6.35;100.00;103292.84;5111134;28;19915;-79
2024/01/31 10:13:56;;;;;;;;;;;;;;;6.39;100.00;103296.59;5111022;28;20370;-79
2024/01/31 10:16:22;;;;;;;;;;;;;;;6.41;100.00;103295.03;5109343;28;19969;-79
2024/01/31 10:18:47;;;;;;;;;;;;;;;6.44;100.00;103303.97;5111156;28;19915;-79
2024/01/31 10:21:12;;;;;;;;;;;;;;;6.46;100.00;103310.94;5110967;28;19958;-79
2024/01/31 10:23:37;;;;;;;;;;;;;;;6.48;100.00;103301.63;5110938;28;19912;-78
2024/01/31 10:26:03;;;;;;;;;;;;;;;6.48;100.00;103304.22;5090569;28;19924;-78
2024/01/31 10:28:28;;;;;;;;;;;;;;;6.50;100.00;103313.00;5110641;28;19916;-78
2024/01/31 10:30:55;;;;;;;;;;;;;;;6.51;100.00;103318.28;5092588;28;19912;-78
2024/01/31 10:33:21;;;;;;;;;;;;;;;6.52;100.00;103312.34;5111128;28;19943;-78
2024/01/31 10:35:47;;;;;;;;;;;;;;;6.53;100.00;103301.22;5106629;28;19958;-79
2024/01/31 10:38:13;;;;;;;;;;;;;;;6.54;100.00;103300.41;5101153;28;19927;-79
2024/01/31 10:40:39;;;;;;;;;;;;;;;6.57;100.00;103311.00;5114577;28;19915;-79
2024/01/31 10:43:05;;;;;;;;;;;;;;;6.58;100.00;103299.88;5114621;28;19912;-79
2024/01/31 10:45:33;;;;;;;;;;;;;;;6.60;100.00;103310.34;5096353;28;20293;-79
2024/01/31 10:47:59;;;;;;;;;;;;;;;6.61;100.00;103315.66;5112073;28;19916;-79
2024/01/31 10:50:24;;;;;;;;;;;;;;;6.62;100.00;103311.41;5114578;28;19912;-78
2024/01/31 10:52:51;;;;;;;;;;;;;;;6.62;100.00;103306.22;5096223;28;19912;-78
2024/01/31 10:55:17;;;;;;;;;;;;;;;6.62;100.00;103308.81;5114546;28;19957;-78
2024/01/31 10:57:44;;;;;;;;;;;;;;;6.61;100.00;103304.41;5113121;28;19916;-79
2024/01/31 11:00:09;;;;;;;;;;;;;;;6.61;100.00;103299.22;5113909;28;19923;-79
2024/01/31 11:02:35;;;;;;;;;;;;;;;6.64;100.00;103291.69;5090958;28;19916;-77
2024/01/31 11:05:01;;;;;;;;;;;;;;;6.64;100.00;103288.19;5106850;28;19960;-77
2024/01/31 11:07:26;;;;;;;;;;;;;;;6.64;100.00;103283.91;5092371;28;19939;-78
2024/01/31 11:09:52;;;;;;;;;;;;;;;6.64;100.00;103283.91;5090138;28;19981;-77
2024/01/31 11:12:17;;;;;;;;;;;;;;;6.64;100.00;103281.31;5113110;28;19916;-78
2024/01/31 11:14:47;;;;;;;;;;;;;;;6.65;100.00;103277.97;5113401;28;19908;-79
2024/01/31 11:17:22;;;;;;;;;;;;;;;6.65;100.00;103270.19;5111747;28;19918;-79
2024/01/31 11:19:58;;;;;;;;;;;;;;;6.66;100.00;103274.56;5092588;28;20014;-79
2024/01/31 11:22:24;;;;;;;;;;;;;;;6.66;100.00;103258.13;5093335;28;19919;-79
2024/01/31 11:24:49;;;;;;;;;;;;;;;6.66;100.00;103248.66;5113247;28;19919;-79
2024/01/31 11:27:15;;;;;;;;;;;;;;;6.64;100.00;103245.06;5113271;28;19904;-79
2024/01/31 11:29:42;;;;;;;;;;;;;;;6.67;100.00;103249.56;5102588;28;19927;-79
2024/01/31 11:32:07;;;;;;;;;;;;;;;6.66;100.00;103240.88;5107905;28;20489;-79
2024/01/31 11:34:32;;;;;;;;;;;;;;;6.67;100.00;103236.63;5113685;28;19995;-79
2024/01/31 11:36:57;;;;;;;;;;;;;;;6.67;100.00;103228.84;5113689;28;19911;-79
2024/01/31 11:39:23;;;;;;;;;;;;;;;6.67;100.00;103221.97;5107608;28;19920;-79
2024/01/31 11:41:49;;;;;;;;;;;;;;;6.66;100.00;103217.56;5104215;28;19969;-79
2024/01/31 11:44:14;;;;;;;;;;;;;;;6.67;100.00;103211.59;5111771;28;19919;-78
2024/01/31 11:46:39;;;;;;;;;;;;;;;6.67;100.00;103201.25;5112622;28;19947;-79
2024/01/31 11:49:05;;;;;;;;;;;;;;;6.64;100.00;103182.88;5092090;28;19923;-79
2024/01/31 11:51:30;;;;;;;;;;;;;;;6.66;100.00;103190.78;5084861;28;19923;-79
2024/01/31 11:53:55;;;;;;;;;;;;;;;6.66;100.00;103170.94;5113462;28;20277;-78
2024/01/31 11:56:20;;;;;;;;;;;;;;;6.66;100.00;103170.94;5112703;28;20012;-78
2024/01/31 11:58:46;;;;;;;;;;;;;;;6.68;100.00;103168.50;5113100;28;19911;-79
2024/01/31 12:01:11;;;;;;;;;;;;;;;6.68;100.00;103165.91;5112057;28;19919;-78
2024/01/31 12:03:37;;;;;;;;;;;;;;;6.66;100.00;103155.38;5113072;28;20523;-79
2024/01/31 12:06:04;;;;;;;;;;;;;;;6.67;100.00;103149.44;5113092;28;19918;-78
2024/01/31 12:08:33;;;;;;;;;;;;;;;6.66;100.00;103146.72;5093663;28;19919;-79
2024/01/31 12:10:58;;;;;;;;;;;;;;;6.65;100.00;103144.91;5112031;28;19988;-79
2024/01/31 12:13:23;;;;;;;;;;;;;;;6.64;100.00;103148.31;5112911;28;20377;-79
2024/01/31 12:15:49;;;;;;;;;;;;;;;6.65;100.00;103148.44;5094735;28;19919;-79
2024/01/31 12:18:15;;;;;;;;;;;;;;;6.66;100.00;103144.13;5112005;28;19965;-79
2024/01/31 12:20:40;;;;;;;;;;;;;;;6.64;100.00;103141.44;5093773;28;19981;-79
2024/01/31 12:23:05;;;;;;;;;;;;;;;6.66;100.00;103141.53;5112601;28;19923;-78
2024/01/31 12:25:31;;;;;;;;;;;;;;;6.65;100.00;103130.28;5112499;28;19920;-78